sensor_id;sensor_type;location;lat;lon;timestamp;P1;durP1;ratioP1;P2;durP2;ratioP2
51556;SDS011;38766;53.194;5.532;2023-02-15T00:01:34;242.18;;;34.15;;
51556;SDS011;38766;53.194;5.532;2023-02-15T00:04:04;196.50;;;32.22;;
51556;SDS011;38766;53.194;5.532;2023-02-15T00:06:30;361.70;;;37.53;;
51556;SDS011;38766;53.194;5.532;2023-02-15T00:08:56;286.63;;;34.88;;
51556;SDS011;38766;53.194;5.532;2023-02-15T00:11:22;255.95;;;35.88;;
51556;SDS011;38766;53.194;5.532;2023-02-15T00:14:12;230.63;;;33.30;;
51556;SDS011;38766;53.194;5.532;2023-02-15T00:16:40;394.83;;;40.80;;
51556;SDS011;38766;53.194;5.532;2023-02-15T00:19:07;262.48;;;34.33;;
51556;SDS011;38766;53.194;5.532;2023-02-15T00:21:34;443.63;;;40.75;;
51556;SDS011;38766;53.194;5.532;2023-02-15T00:24:01;390.65;;;36.95;;
51556;SDS011;38766;53.194;5.532;2023-02-15T00:26:31;334.73;;;36.33;;
51556;SDS011;38766;53.194;5.532;2023-02-15T00:28:57;325.13;;;34.85;;
51556;SDS011;38766;53.194;5.532;2023-02-15T00:31:26;497.88;;;40.85;;
51556;SDS011;38766;53.194;5.532;2023-02-15T00:33:55;512.35;;;43.42;;
51556;SDS011;38766;53.194;5.532;2023-02-15T00:36:25;527.95;;;43.67;;
51556;SDS011;38766;53.194;5.532;2023-02-15T00:38:51;365.13;;;39.33;;
51556;SDS011;38766;53.194;5.532;2023-02-15T00:41:17;503.80;;;44.58;;
51556;SDS011;38766;53.194;5.532;2023-02-15T00:43:42;279.25;;;35.50;;
51556;SDS011;38766;53.194;5.532;2023-02-15T00:46:08;382.88;;;37.20;;
51556;SDS011;38766;53.194;5.532;2023-02-15T00:48:34;535.67;;;45.10;;
51556;SDS011;38766;53.194;5.532;2023-02-15T00:50:59;546.67;;;43.95;;
51556;SDS011;38766;53.194;5.532;2023-02-15T00:53:26;352.88;;;36.45;;
51556;SDS011;38766;53.194;5.532;2023-02-15T00:55:53;373.42;;;36.92;;
51556;SDS011;38766;53.194;5.532;2023-02-15T00:58:19;406.05;;;37.58;;
51556;SDS011;38766;53.194;5.532;2023-02-15T01:00:45;520.03;;;41.97;;
51556;SDS011;38766;53.194;5.532;2023-02-15T01:03:12;152.93;;;30.98;;
51556;SDS011;38766;53.194;5.532;2023-02-15T01:05:39;198.77;;;32.42;;
51556;SDS011;38766;53.194;5.532;2023-02-15T01:08:05;503.30;;;45.00;;
51556;SDS011;38766;53.194;5.532;2023-02-15T01:10:31;333.80;;;38.28;;
51556;SDS011;38766;53.194;5.532;2023-02-15T01:12:57;415.80;;;40.63;;
51556;SDS011;38766;53.194;5.532;2023-02-15T01:15:23;380.25;;;39.72;;
51556;SDS011;38766;53.194;5.532;2023-02-15T01:17:49;270.50;;;37.20;;
51556;SDS011;38766;53.194;5.532;2023-02-15T01:20:22;325.27;;;40.13;;
51556;SDS011;38766;53.194;5.532;2023-02-15T01:22:50;275.35;;;32.90;;
51556;SDS011;38766;53.194;5.532;2023-02-15T01:25:17;328.75;;;36.03;;
51556;SDS011;38766;53.194;5.532;2023-02-15T01:27:44;245.57;;;32.95;;
51556;SDS011;38766;53.194;5.532;2023-02-15T01:30:10;449.85;;;39.78;;
51556;SDS011;38766;53.194;5.532;2023-02-15T01:32:36;486.55;;;39.97;;
51556;SDS011;38766;53.194;5.532;2023-02-15T01:35:02;431.02;;;39.95;;
51556;SDS011;38766;53.194;5.532;2023-02-15T01:37:32;271.23;;;33.65;;
51556;SDS011;38766;53.194;5.532;2023-02-15T01:39:58;435.42;;;37.92;;
51556;SDS011;38766;53.194;5.532;2023-02-15T01:42:25;279.00;;;33.35;;
51556;SDS011;38766;53.194;5.532;2023-02-15T01:44:55;308.80;;;33.58;;
51556;SDS011;38766;53.194;5.532;2023-02-15T01:47:23;216.25;;;31.50;;
51556;SDS011;38766;53.194;5.532;2023-02-15T01:53:17;225.55;;;32.08;;
51556;SDS011;38766;53.194;5.532;2023-02-15T01:56:02;162.00;;;28.48;;
51556;SDS011;38766;53.194;5.532;2023-02-15T01:58:56;320.58;;;33.15;;
51556;SDS011;38766;53.194;5.532;2023-02-15T02:01:27;207.63;;;28.98;;
51556;SDS011;38766;53.194;5.532;2023-02-15T02:06:41;261.05;;;30.52;;
51556;SDS011;38766;53.194;5.532;2023-02-15T02:09:07;150.20;;;29.25;;
51556;SDS011;38766;53.194;5.532;2023-02-15T02:11:33;195.05;;;28.73;;
51556;SDS011;38766;53.194;5.532;2023-02-15T02:13:59;244.10;;;29.70;;
51556;SDS011;38766;53.194;5.532;2023-02-15T02:16:28;219.38;;;29.33;;
51556;SDS011;38766;53.194;5.532;2023-02-15T02:19:29;241.05;;;30.33;;
51556;SDS011;38766;53.194;5.532;2023-02-15T02:38:11;179.68;;;27.42;;
51556;SDS011;38766;53.194;5.532;2023-02-15T02:41:17;247.45;;;30.65;;
51556;SDS011;38766;53.194;5.532;2023-02-15T02:43:59;414.17;;;38.97;;
51556;SDS011;38766;53.194;5.532;2023-02-15T02:46:37;189.63;;;31.23;;
51556;SDS011;38766;53.194;5.532;2023-02-15T02:49:06;409.17;;;39.05;;
51556;SDS011;38766;53.194;5.532;2023-02-15T02:51:32;416.48;;;37.10;;
51556;SDS011;38766;53.194;5.532;2023-02-15T02:53:58;288.48;;;35.25;;
51556;SDS011;38766;53.194;5.532;2023-02-15T02:56:32;356.88;;;37.03;;
51556;SDS011;38766;53.194;5.532;2023-02-15T02:59:12;467.45;;;40.58;;
51556;SDS011;38766;53.194;5.532;2023-02-15T03:01:54;332.88;;;34.80;;
51556;SDS011;38766;53.194;5.532;2023-02-15T03:04:28;355.30;;;34.30;;
51556;SDS011;38766;53.194;5.532;2023-02-15T03:06:58;399.50;;;36.78;;
51556;SDS011;38766;53.194;5.532;2023-02-15T03:12:16;371.85;;;34.28;;
51556;SDS011;38766;53.194;5.532;2023-02-15T03:17:27;170.05;;;26.65;;
51556;SDS011;38766;53.194;5.532;2023-02-15T03:19:58;259.85;;;30.55;;
51556;SDS011;38766;53.194;5.532;2023-02-15T03:22:34;231.77;;;29.92;;
51556;SDS011;38766;53.194;5.532;2023-02-15T03:25:14;236.32;;;28.00;;
51556;SDS011;38766;53.194;5.532;2023-02-15T03:27:45;295.60;;;31.23;;
51556;SDS011;38766;53.194;5.532;2023-02-15T03:30:16;407.20;;;34.92;;
51556;SDS011;38766;53.194;5.532;2023-02-15T03:32:45;170.02;;;25.83;;
51556;SDS011;38766;53.194;5.532;2023-02-15T03:35:12;274.85;;;28.23;;
51556;SDS011;38766;53.194;5.532;2023-02-15T03:37:47;87.65;;;22.45;;
51556;SDS011;38766;53.194;5.532;2023-02-15T03:40:43;190.15;;;24.55;;
51556;SDS011;38766;53.194;5.532;2023-02-15T03:43:31;132.93;;;22.33;;
51556;SDS011;38766;53.194;5.532;2023-02-15T03:46:08;83.07;;;22.38;;
51556;SDS011;38766;53.194;5.532;2023-02-15T03:48:50;208.93;;;25.17;;
51556;SDS011;38766;53.194;5.532;2023-02-15T03:51:19;174.38;;;25.63;;
51556;SDS011;38766;53.194;5.532;2023-02-15T03:54:07;138.75;;;26.20;;
51556;SDS011;38766;53.194;5.532;2023-02-15T03:56:36;187.02;;;27.17;;
51556;SDS011;38766;53.194;5.532;2023-02-15T03:59:03;146.18;;;26.73;;
51556;SDS011;38766;53.194;5.532;2023-02-15T04:04:38;161.27;;;24.75;;
51556;SDS011;38766;53.194;5.532;2023-02-15T04:07:07;164.10;;;26.70;;
51556;SDS011;38766;53.194;5.532;2023-02-15T04:09:34;118.40;;;26.10;;
51556;SDS011;38766;53.194;5.532;2023-02-15T04:12:18;92.53;;;25.55;;
51556;SDS011;38766;53.194;5.532;2023-02-15T04:14:44;159.55;;;29.10;;
51556;SDS011;38766;53.194;5.532;2023-02-15T04:17:28;65.90;;;26.08;;
51556;SDS011;38766;53.194;5.532;2023-02-15T04:19:54;180.18;;;28.67;;
51556;SDS011;38766;53.194;5.532;2023-02-15T04:22:39;101.40;;;27.02;;
51556;SDS011;38766;53.194;5.532;2023-02-15T04:25:23;102.03;;;27.10;;
51556;SDS011;38766;53.194;5.532;2023-02-15T04:27:50;64.35;;;24.77;;
51556;SDS011;38766;53.194;5.532;2023-02-15T04:30:18;58.08;;;26.08;;
51556;SDS011;38766;53.194;5.532;2023-02-15T04:32:46;88.35;;;29.20;;
51556;SDS011;38766;53.194;5.532;2023-02-15T04:35:12;150.00;;;29.02;;
51556;SDS011;38766;53.194;5.532;2023-02-15T04:37:38;95.38;;;26.13;;
51556;SDS011;38766;53.194;5.532;2023-02-15T04:40:05;55.17;;;25.55;;
51556;SDS011;38766;53.194;5.532;2023-02-15T04:42:32;80.65;;;25.45;;
51556;SDS011;38766;53.194;5.532;2023-02-15T04:47:32;143.82;;;25.95;;
51556;SDS011;38766;53.194;5.532;2023-02-15T04:49:58;82.47;;;25.70;;
51556;SDS011;38766;53.194;5.532;2023-02-15T04:52:24;104.03;;;22.52;;
51556;SDS011;38766;53.194;5.532;2023-02-15T04:54:50;44.85;;;22.60;;
51556;SDS011;38766;53.194;5.532;2023-02-15T04:57:15;71.43;;;22.58;;
51556;SDS011;38766;53.194;5.532;2023-02-15T04:59:41;53.55;;;22.00;;
51556;SDS011;38766;53.194;5.532;2023-02-15T05:02:06;62.25;;;23.90;;
51556;SDS011;38766;53.194;5.532;2023-02-15T05:04:32;47.85;;;23.45;;
51556;SDS011;38766;53.194;5.532;2023-02-15T05:06:58;116.28;;;25.58;;
51556;SDS011;38766;53.194;5.532;2023-02-15T05:09:23;64.15;;;23.92;;
51556;SDS011;38766;53.194;5.532;2023-02-15T05:11:49;91.10;;;26.65;;
51556;SDS011;38766;53.194;5.532;2023-02-15T05:14:14;58.00;;;26.17;;
51556;SDS011;38766;53.194;5.532;2023-02-15T05:16:40;47.38;;;25.73;;
51556;SDS011;38766;53.194;5.532;2023-02-15T05:19:06;64.35;;;26.77;;
51556;SDS011;38766;53.194;5.532;2023-02-15T05:21:32;59.92;;;27.35;;
51556;SDS011;38766;53.194;5.532;2023-02-15T05:23:58;102.85;;;27.70;;
51556;SDS011;38766;53.194;5.532;2023-02-15T05:26:24;57.90;;;27.05;;
51556;SDS011;38766;53.194;5.532;2023-02-15T05:29:08;76.07;;;26.13;;
51556;SDS011;38766;53.194;5.532;2023-02-15T05:31:35;37.08;;;23.92;;
51556;SDS011;38766;53.194;5.532;2023-02-15T05:34:01;80.38;;;23.90;;
51556;SDS011;38766;53.194;5.532;2023-02-15T05:36:27;76.38;;;24.05;;
51556;SDS011;38766;53.194;5.532;2023-02-15T05:38:53;70.70;;;26.50;;
51556;SDS011;38766;53.194;5.532;2023-02-15T05:41:19;59.35;;;25.80;;
51556;SDS011;38766;53.194;5.532;2023-02-15T05:43:45;63.63;;;24.80;;
51556;SDS011;38766;53.194;5.532;2023-02-15T05:46:10;48.97;;;25.42;;
51556;SDS011;38766;53.194;5.532;2023-02-15T05:48:37;52.85;;;25.77;;
51556;SDS011;38766;53.194;5.532;2023-02-15T05:51:06;38.92;;;23.92;;
51556;SDS011;38766;53.194;5.532;2023-02-15T05:53:35;64.13;;;25.25;;
51556;SDS011;38766;53.194;5.532;2023-02-15T05:56:02;56.78;;;24.13;;
51556;SDS011;38766;53.194;5.532;2023-02-15T05:58:29;53.47;;;24.40;;
51556;SDS011;38766;53.194;5.532;2023-02-15T06:01:06;61.88;;;26.80;;
51556;SDS011;38766;53.194;5.532;2023-02-15T06:03:36;55.90;;;26.67;;
51556;SDS011;38766;53.194;5.532;2023-02-15T06:06:02;63.40;;;26.42;;
51556;SDS011;38766;53.194;5.532;2023-02-15T06:08:29;45.13;;;25.65;;
51556;SDS011;38766;53.194;5.532;2023-02-15T06:10:55;44.63;;;25.35;;
51556;SDS011;38766;53.194;5.532;2023-02-15T06:13:21;48.75;;;24.73;;
51556;SDS011;38766;53.194;5.532;2023-02-15T06:15:47;61.45;;;25.55;;
51556;SDS011;38766;53.194;5.532;2023-02-15T06:18:12;86.18;;;27.13;;
51556;SDS011;38766;53.194;5.532;2023-02-15T06:20:38;45.70;;;25.92;;
51556;SDS011;38766;53.194;5.532;2023-02-15T06:23:03;72.93;;;25.20;;
51556;SDS011;38766;53.194;5.532;2023-02-15T06:25:29;89.53;;;26.00;;
51556;SDS011;38766;53.194;5.532;2023-02-15T06:27:55;84.45;;;27.02;;
51556;SDS011;38766;53.194;5.532;2023-02-15T06:30:20;86.68;;;29.38;;
51556;SDS011;38766;53.194;5.532;2023-02-15T06:32:46;76.13;;;26.58;;
51556;SDS011;38766;53.194;5.532;2023-02-15T06:35:12;76.30;;;28.15;;
51556;SDS011;38766;53.194;5.532;2023-02-15T06:37:38;50.97;;;26.40;;
51556;SDS011;38766;53.194;5.532;2023-02-15T06:40:03;60.95;;;28.20;;
51556;SDS011;38766;53.194;5.532;2023-02-15T06:42:29;66.95;;;27.45;;
51556;SDS011;38766;53.194;5.532;2023-02-15T06:44:55;51.47;;;27.38;;
51556;SDS011;38766;53.194;5.532;2023-02-15T06:47:23;48.97;;;26.58;;
51556;SDS011;38766;53.194;5.532;2023-02-15T06:49:49;46.47;;;26.92;;
51556;SDS011;38766;53.194;5.532;2023-02-15T06:52:14;47.63;;;27.65;;
51556;SDS011;38766;53.194;5.532;2023-02-15T06:54:40;45.72;;;26.63;;
51556;SDS011;38766;53.194;5.532;2023-02-15T06:57:06;47.80;;;28.35;;
51556;SDS011;38766;53.194;5.532;2023-02-15T06:59:31;50.75;;;26.52;;
51556;SDS011;38766;53.194;5.532;2023-02-15T07:01:57;44.47;;;28.35;;
51556;SDS011;38766;53.194;5.532;2023-02-15T07:04:23;51.10;;;26.83;;
51556;SDS011;38766;53.194;5.532;2023-02-15T07:06:49;52.25;;;27.60;;
51556;SDS011;38766;53.194;5.532;2023-02-15T07:09:15;49.05;;;26.20;;
51556;SDS011;38766;53.194;5.532;2023-02-15T07:11:44;46.00;;;26.92;;
51556;SDS011;38766;53.194;5.532;2023-02-15T07:14:28;45.75;;;27.63;;
51556;SDS011;38766;53.194;5.532;2023-02-15T07:16:54;42.90;;;27.40;;
51556;SDS011;38766;53.194;5.532;2023-02-15T07:19:19;40.75;;;25.98;;
51556;SDS011;38766;53.194;5.532;2023-02-15T07:21:45;42.65;;;27.08;;
51556;SDS011;38766;53.194;5.532;2023-02-15T07:24:10;43.97;;;26.58;;
51556;SDS011;38766;53.194;5.532;2023-02-15T07:26:36;44.53;;;27.67;;
51556;SDS011;38766;53.194;5.532;2023-02-15T07:29:02;45.60;;;28.23;;
51556;SDS011;38766;53.194;5.532;2023-02-15T07:31:27;46.63;;;27.00;;
51556;SDS011;38766;53.194;5.532;2023-02-15T07:33:53;48.08;;;29.50;;
51556;SDS011;38766;53.194;5.532;2023-02-15T07:36:19;42.10;;;27.88;;
51556;SDS011;38766;53.194;5.532;2023-02-15T07:38:44;52.50;;;29.35;;
51556;SDS011;38766;53.194;5.532;2023-02-15T07:41:11;48.15;;;29.10;;
51556;SDS011;38766;53.194;5.532;2023-02-15T07:43:39;49.00;;;29.02;;
51556;SDS011;38766;53.194;5.532;2023-02-15T07:46:08;51.42;;;30.25;;
51556;SDS011;38766;53.194;5.532;2023-02-15T07:48:36;51.33;;;29.98;;
51556;SDS011;38766;53.194;5.532;2023-02-15T07:51:04;53.50;;;31.40;;
51556;SDS011;38766;53.194;5.532;2023-02-15T07:53:31;54.50;;;31.42;;
51556;SDS011;38766;53.194;5.532;2023-02-15T07:55:58;59.00;;;33.58;;
51556;SDS011;38766;53.194;5.532;2023-02-15T07:58:25;53.10;;;30.40;;
51556;SDS011;38766;53.194;5.532;2023-02-15T08:01:10;52.70;;;31.48;;
51556;SDS011;38766;53.194;5.532;2023-02-15T08:03:38;57.58;;;30.92;;
51556;SDS011;38766;53.194;5.532;2023-02-15T08:06:03;53.78;;;32.17;;
51556;SDS011;38766;53.194;5.532;2023-02-15T08:08:32;59.28;;;32.35;;
51556;SDS011;38766;53.194;5.532;2023-02-15T08:11:07;54.92;;;32.17;;
51556;SDS011;38766;53.194;5.532;2023-02-15T08:18:52;55.60;;;32.00;;
51556;SDS011;38766;53.194;5.532;2023-02-15T08:21:19;55.25;;;31.33;;
51556;SDS011;38766;53.194;5.532;2023-02-15T08:23:45;53.67;;;31.77;;
51556;SDS011;38766;53.194;5.532;2023-02-15T08:26:11;53.60;;;32.00;;
51556;SDS011;38766;53.194;5.532;2023-02-15T08:28:37;56.10;;;32.40;;
51556;SDS011;38766;53.194;5.532;2023-02-15T08:31:10;53.22;;;32.13;;
51556;SDS011;38766;53.194;5.532;2023-02-15T08:33:37;56.85;;;31.63;;
51556;SDS011;38766;53.194;5.532;2023-02-15T08:38:31;54.55;;;30.42;;
51556;SDS011;38766;53.194;5.532;2023-02-15T08:40:57;50.58;;;31.05;;
51556;SDS011;38766;53.194;5.532;2023-02-15T08:43:33;56.10;;;32.38;;
51556;SDS011;38766;53.194;5.532;2023-02-15T08:45:58;53.45;;;31.08;;
51556;SDS011;38766;53.194;5.532;2023-02-15T08:48:24;52.83;;;31.25;;
51556;SDS011;38766;53.194;5.532;2023-02-15T08:50:50;56.50;;;31.98;;
51556;SDS011;38766;53.194;5.532;2023-02-15T08:53:15;54.28;;;30.77;;
51556;SDS011;38766;53.194;5.532;2023-02-15T08:55:45;52.42;;;30.38;;
51556;SDS011;38766;53.194;5.532;2023-02-15T08:58:10;50.38;;;30.25;;
51556;SDS011;38766;53.194;5.532;2023-02-15T09:00:37;53.20;;;30.63;;
51556;SDS011;38766;53.194;5.532;2023-02-15T09:03:02;50.83;;;30.30;;
51556;SDS011;38766;53.194;5.532;2023-02-15T09:05:28;55.97;;;29.70;;
51556;SDS011;38766;53.194;5.532;2023-02-15T09:07:54;50.47;;;30.13;;
51556;SDS011;38766;53.194;5.532;2023-02-15T09:10:19;49.63;;;29.67;;
51556;SDS011;38766;53.194;5.532;2023-02-15T09:12:45;49.70;;;29.83;;
51556;SDS011;38766;53.194;5.532;2023-02-15T09:15:11;61.05;;;32.58;;
51556;SDS011;38766;53.194;5.532;2023-02-15T09:17:36;50.05;;;30.42;;
51556;SDS011;38766;53.194;5.532;2023-02-15T09:20:05;49.90;;;29.73;;
51556;SDS011;38766;53.194;5.532;2023-02-15T09:22:31;45.03;;;28.92;;
51556;SDS011;38766;53.194;5.532;2023-02-15T09:24:59;52.42;;;31.33;;
51556;SDS011;38766;53.194;5.532;2023-02-15T09:27:25;51.42;;;29.17;;
51556;SDS011;38766;53.194;5.532;2023-02-15T09:29:51;45.35;;;30.00;;
51556;SDS011;38766;53.194;5.532;2023-02-15T09:32:16;45.50;;;28.83;;
51556;SDS011;38766;53.194;5.532;2023-02-15T09:34:42;46.53;;;28.08;;
51556;SDS011;38766;53.194;5.532;2023-02-15T09:37:08;40.75;;;26.90;;
51556;SDS011;38766;53.194;5.532;2023-02-15T09:39:34;43.28;;;26.92;;
51556;SDS011;38766;53.194;5.532;2023-02-15T09:42:10;46.95;;;28.13;;
51556;SDS011;38766;53.194;5.532;2023-02-15T09:45:04;46.08;;;27.88;;
51556;SDS011;38766;53.194;5.532;2023-02-15T10:00:59;40.17;;;25.80;;
51556;SDS011;38766;53.194;5.532;2023-02-15T10:03:33;42.67;;;25.60;;
51556;SDS011;38766;53.194;5.532;2023-02-15T10:12:01;45.55;;;25.75;;
51556;SDS011;38766;53.194;5.532;2023-02-15T10:20:40;39.42;;;24.90;;
51556;SDS011;38766;53.194;5.532;2023-02-15T10:34:25;44.72;;;25.02;;
51556;SDS011;38766;53.194;5.532;2023-02-15T10:51:58;45.47;;;26.00;;
51556;SDS011;38766;53.194;5.532;2023-02-15T10:54:37;44.75;;;26.90;;
51556;SDS011;38766;53.194;5.532;2023-02-15T10:59:50;42.65;;;26.50;;
51556;SDS011;38766;53.194;5.532;2023-02-15T11:07:38;44.88;;;26.75;;
51556;SDS011;38766;53.194;5.532;2023-02-15T11:12:58;41.85;;;28.75;;
51556;SDS011;38766;53.194;5.532;2023-02-15T11:15:46;41.65;;;27.30;;
51556;SDS011;38766;53.194;5.532;2023-02-15T11:18:19;50.55;;;27.65;;
51556;SDS011;38766;53.194;5.532;2023-02-15T11:21:05;48.53;;;27.67;;
51556;SDS011;38766;53.194;5.532;2023-02-15T11:23:45;43.33;;;27.05;;
51556;SDS011;38766;53.194;5.532;2023-02-15T11:26:34;47.58;;;27.70;;
51556;SDS011;38766;53.194;5.532;2023-02-15T11:29:01;44.60;;;28.55;;
51556;SDS011;38766;53.194;5.532;2023-02-15T11:31:43;46.78;;;26.77;;
51556;SDS011;38766;53.194;5.532;2023-02-15T11:34:25;44.33;;;26.95;;
51556;SDS011;38766;53.194;5.532;2023-02-15T11:37:06;46.53;;;25.58;;
51556;SDS011;38766;53.194;5.532;2023-02-15T11:39:36;42.97;;;27.08;;
51556;SDS011;38766;53.194;5.532;2023-02-15T11:42:04;48.38;;;28.65;;
51556;SDS011;38766;53.194;5.532;2023-02-15T11:44:47;48.03;;;28.52;;
51556;SDS011;38766;53.194;5.532;2023-02-15T11:47:29;52.05;;;30.65;;
51556;SDS011;38766;53.194;5.532;2023-02-15T11:49:55;51.83;;;32.22;;
51556;SDS011;38766;53.194;5.532;2023-02-15T11:52:22;55.17;;;32.33;;
51556;SDS011;38766;53.194;5.532;2023-02-15T11:54:49;54.00;;;32.97;;
51556;SDS011;38766;53.194;5.532;2023-02-15T11:57:22;50.72;;;32.88;;
51556;SDS011;38766;53.194;5.532;2023-02-15T12:00:02;54.35;;;32.55;;
51556;SDS011;38766;53.194;5.532;2023-02-15T12:02:35;54.40;;;33.58;;
51556;SDS011;38766;53.194;5.532;2023-02-15T12:05:05;50.80;;;32.67;;
51556;SDS011;38766;53.194;5.532;2023-02-15T12:07:37;51.97;;;31.70;;
51556;SDS011;38766;53.194;5.532;2023-02-15T12:13:08;51.70;;;33.15;;
51556;SDS011;38766;53.194;5.532;2023-02-15T12:15:42;51.03;;;32.10;;
51556;SDS011;38766;53.194;5.532;2023-02-15T12:20:59;49.08;;;28.95;;
51556;SDS011;38766;53.194;5.532;2023-02-15T12:23:28;46.63;;;30.02;;
51556;SDS011;38766;53.194;5.532;2023-02-15T12:25:55;48.97;;;29.42;;
51556;SDS011;38766;53.194;5.532;2023-02-15T12:30:50;47.45;;;27.75;;
51556;SDS011;38766;53.194;5.532;2023-02-15T12:33:31;46.22;;;28.55;;
51556;SDS011;38766;53.194;5.532;2023-02-15T12:36:09;49.92;;;29.80;;
51556;SDS011;38766;53.194;5.532;2023-02-15T12:38:38;48.05;;;29.23;;
51556;SDS011;38766;53.194;5.532;2023-02-15T12:41:19;47.33;;;29.17;;
51556;SDS011;38766;53.194;5.532;2023-02-15T12:43:46;44.78;;;29.67;;
51556;SDS011;38766;53.194;5.532;2023-02-15T12:46:13;43.72;;;28.73;;
51556;SDS011;38766;53.194;5.532;2023-02-15T12:49:06;48.92;;;30.02;;
51556;SDS011;38766;53.194;5.532;2023-02-15T12:51:46;45.72;;;27.98;;
51556;SDS011;38766;53.194;5.532;2023-02-15T12:54:21;49.83;;;29.50;;
51556;SDS011;38766;53.194;5.532;2023-02-15T12:56:56;48.08;;;30.38;;
51556;SDS011;38766;53.194;5.532;2023-02-15T12:59:23;50.80;;;28.85;;
51556;SDS011;38766;53.194;5.532;2023-02-15T13:01:49;49.28;;;29.00;;
51556;SDS011;38766;53.194;5.532;2023-02-15T13:04:25;45.95;;;30.15;;
51556;SDS011;38766;53.194;5.532;2023-02-15T13:06:57;45.95;;;28.40;;
51556;SDS011;38766;53.194;5.532;2023-02-15T13:11:56;49.85;;;29.90;;
51556;SDS011;38766;53.194;5.532;2023-02-15T13:14:33;51.95;;;30.92;;
51556;SDS011;38766;53.194;5.532;2023-02-15T13:17:02;45.90;;;30.05;;
51556;SDS011;38766;53.194;5.532;2023-02-15T13:19:37;57.03;;;32.97;;
51556;SDS011;38766;53.194;5.532;2023-02-15T13:22:40;55.92;;;33.00;;
51556;SDS011;38766;53.194;5.532;2023-02-15T13:25:20;51.33;;;30.80;;
51556;SDS011;38766;53.194;5.532;2023-02-15T13:27:50;52.13;;;31.70;;
51556;SDS011;38766;53.194;5.532;2023-02-15T13:32:49;52.90;;;32.53;;
51556;SDS011;38766;53.194;5.532;2023-02-15T13:35:17;56.13;;;33.65;;
51556;SDS011;38766;53.194;5.532;2023-02-15T13:38:02;52.40;;;33.78;;
51556;SDS011;38766;53.194;5.532;2023-02-15T13:40:45;51.85;;;33.83;;
51556;SDS011;38766;53.194;5.532;2023-02-15T13:43:27;54.75;;;32.78;;
51556;SDS011;38766;53.194;5.532;2023-02-15T13:46:00;58.03;;;33.92;;
51556;SDS011;38766;53.194;5.532;2023-02-15T13:51:53;54.60;;;34.20;;
51556;SDS011;38766;53.194;5.532;2023-02-15T13:57:15;54.35;;;33.05;;
51556;SDS011;38766;53.194;5.532;2023-02-15T14:05:14;52.53;;;31.05;;
51556;SDS011;38766;53.194;5.532;2023-02-15T14:18:56;55.20;;;31.80;;
51556;SDS011;38766;53.194;5.532;2023-02-15T14:21:32;50.15;;;30.65;;
51556;SDS011;38766;53.194;5.532;2023-02-15T14:29:41;56.00;;;34.60;;
51556;SDS011;38766;53.194;5.532;2023-02-15T14:35:08;56.05;;;32.38;;
51556;SDS011;38766;53.194;5.532;2023-02-15T14:43:04;54.25;;;32.53;;
51556;SDS011;38766;53.194;5.532;2023-02-15T14:45:58;49.90;;;30.73;;
51556;SDS011;38766;53.194;5.532;2023-02-15T14:48:33;56.83;;;33.83;;
51556;SDS011;38766;53.194;5.532;2023-02-15T14:56:41;53.05;;;33.00;;
51556;SDS011;38766;53.194;5.532;2023-02-15T15:01:52;61.63;;;33.72;;
51556;SDS011;38766;53.194;5.532;2023-02-15T15:04:23;56.40;;;33.92;;
51556;SDS011;38766;53.194;5.532;2023-02-15T15:09:37;52.28;;;32.55;;
51556;SDS011;38766;53.194;5.532;2023-02-15T15:14:46;53.72;;;34.55;;
51556;SDS011;38766;53.194;5.532;2023-02-15T15:17:51;55.28;;;34.83;;
51556;SDS011;38766;53.194;5.532;2023-02-15T15:22:32;56.20;;;33.67;;
51556;SDS011;38766;53.194;5.532;2023-02-15T15:24:59;58.30;;;34.25;;
51556;SDS011;38766;53.194;5.532;2023-02-15T15:32:43;53.63;;;32.75;;
51556;SDS011;38766;53.194;5.532;2023-02-15T15:48:32;54.65;;;33.88;;
51556;SDS011;38766;53.194;5.532;2023-02-15T15:53:46;53.67;;;33.50;;
51556;SDS011;38766;53.194;5.532;2023-02-15T15:56:29;58.38;;;35.13;;
51556;SDS011;38766;53.194;5.532;2023-02-15T15:58:58;64.18;;;36.80;;
51556;SDS011;38766;53.194;5.532;2023-02-15T16:01:31;54.20;;;34.28;;
51556;SDS011;38766;53.194;5.532;2023-02-15T16:04:12;52.80;;;35.00;;
51556;SDS011;38766;53.194;5.532;2023-02-15T16:06:47;51.67;;;33.63;;
51556;SDS011;38766;53.194;5.532;2023-02-15T16:09:17;58.75;;;36.60;;
51556;SDS011;38766;53.194;5.532;2023-02-15T16:11:43;61.97;;;36.33;;
51556;SDS011;38766;53.194;5.532;2023-02-15T16:14:13;57.67;;;34.95;;
51556;SDS011;38766;53.194;5.532;2023-02-15T16:16:49;60.28;;;36.00;;
51556;SDS011;38766;53.194;5.532;2023-02-15T16:19:18;56.20;;;35.13;;
51556;SDS011;38766;53.194;5.532;2023-02-15T16:21:49;58.45;;;36.58;;
51556;SDS011;38766;53.194;5.532;2023-02-15T16:27:09;60.65;;;37.72;;
51556;SDS011;38766;53.194;5.532;2023-02-15T16:29:38;65.00;;;37.55;;
51556;SDS011;38766;53.194;5.532;2023-02-15T16:32:05;58.55;;;36.15;;
51556;SDS011;38766;53.194;5.532;2023-02-15T16:34:50;60.70;;;36.63;;
51556;SDS011;38766;53.194;5.532;2023-02-15T16:37:20;62.15;;;37.58;;
51556;SDS011;38766;53.194;5.532;2023-02-15T16:39:48;63.40;;;37.67;;
51556;SDS011;38766;53.194;5.532;2023-02-15T16:42:15;60.97;;;37.15;;
51556;SDS011;38766;53.194;5.532;2023-02-15T16:44:42;64.18;;;39.05;;
51556;SDS011;38766;53.194;5.532;2023-02-15T16:47:17;68.45;;;38.50;;
51556;SDS011;38766;53.194;5.532;2023-02-15T16:49:48;64.18;;;39.53;;
51556;SDS011;38766;53.194;5.532;2023-02-15T16:52:23;63.70;;;39.40;;
51556;SDS011;38766;53.194;5.532;2023-02-15T16:54:54;65.00;;;39.10;;
51556;SDS011;38766;53.194;5.532;2023-02-15T16:57:23;66.57;;;38.97;;
51556;SDS011;38766;53.194;5.532;2023-02-15T16:59:59;75.35;;;42.13;;
51556;SDS011;38766;53.194;5.532;2023-02-15T17:02:29;63.80;;;39.13;;
51556;SDS011;38766;53.194;5.532;2023-02-15T17:07:34;62.97;;;39.60;;
51556;SDS011;38766;53.194;5.532;2023-02-15T17:10:16;71.50;;;39.83;;
51556;SDS011;38766;53.194;5.532;2023-02-15T17:13:02;69.85;;;40.58;;
51556;SDS011;38766;53.194;5.532;2023-02-15T17:17:58;67.53;;;41.55;;
51556;SDS011;38766;53.194;5.532;2023-02-15T17:20:29;64.78;;;40.17;;
51556;SDS011;38766;53.194;5.532;2023-02-15T17:22:56;68.43;;;42.75;;
51556;SDS011;38766;53.194;5.532;2023-02-15T17:25:28;69.20;;;42.05;;
51556;SDS011;38766;53.194;5.532;2023-02-15T17:28:04;64.68;;;40.90;;
51556;SDS011;38766;53.194;5.532;2023-02-15T17:30:32;70.60;;;42.00;;
51556;SDS011;38766;53.194;5.532;2023-02-15T17:33:00;69.38;;;41.45;;
51556;SDS011;38766;53.194;5.532;2023-02-15T17:35:28;68.22;;;41.90;;
51556;SDS011;38766;53.194;5.532;2023-02-15T17:38:04;71.28;;;43.53;;
51556;SDS011;38766;53.194;5.532;2023-02-15T17:40:39;68.65;;;41.75;;
51556;SDS011;38766;53.194;5.532;2023-02-15T17:43:05;71.05;;;43.40;;
51556;SDS011;38766;53.194;5.532;2023-02-15T17:45:35;71.60;;;42.70;;
51556;SDS011;38766;53.194;5.532;2023-02-15T17:48:09;70.18;;;41.53;;
51556;SDS011;38766;53.194;5.532;2023-02-15T17:50:47;64.68;;;40.20;;
51556;SDS011;38766;53.194;5.532;2023-02-15T17:53:14;77.00;;;44.45;;
51556;SDS011;38766;53.194;5.532;2023-02-15T17:55:42;71.40;;;44.45;;
51556;SDS011;38766;53.194;5.532;2023-02-15T17:58:18;67.93;;;43.08;;